createdAt,value
2018-11-25T00:00:18.117Z,30.00
2018-11-25T00:02:45.806Z,32.73
2018-11-25T00:05:13.393Z,38.27
2018-11-25T00:07:41.258Z,34.40
2018-11-25T00:10:09.205Z,34.50
2018-11-25T00:12:36.799Z,32.60
2018-11-25T00:15:06.289Z,33.30
2018-11-25T00:17:33.913Z,31.23
2018-11-25T00:20:01.640Z,28.33
2018-11-25T00:22:35.196Z,29.70
2018-11-25T00:25:10.027Z,30.07
2018-11-25T00:27:37.644Z,28.50
2018-11-25T00:30:08.158Z,28.33
2018-11-25T00:32:35.808Z,28.77
2018-11-25T00:35:03.508Z,23.40
2018-11-25T00:37:31.081Z,31.27
2018-11-25T00:39:58.704Z,28.77
2018-11-25T00:42:26.355Z,30.20
2018-11-25T00:44:54.032Z,28.97
2018-11-25T00:47:21.720Z,29.10
2018-11-25T00:49:49.344Z,30.17
2018-11-25T00:52:16.925Z,29.57
2018-11-25T00:54:44.715Z,29.50
2018-11-25T00:57:12.366Z,28.10
2018-11-25T00:59:39.982Z,30.00
2018-11-25T01:02:07.650Z,26.60
2018-11-25T01:04:35.290Z,30.07
2018-11-25T01:07:02.898Z,33.93
2018-11-25T01:09:30.568Z,32.57
2018-11-25T01:11:58.150Z,30.93
2018-11-25T01:14:25.794Z,26.90
2018-11-25T01:16:53.748Z,34.60
2018-11-25T01:19:21.497Z,31.20
2018-11-25T01:21:49.186Z,31.43
2018-11-25T01:24:17.226Z,27.80
2018-11-25T01:26:44.858Z,29.20
2018-11-25T01:29:12.522Z,26.13
2018-11-25T01:31:40.505Z,30.60
2018-11-25T01:34:08.417Z,28.10
2018-11-25T01:36:36.148Z,35.37
2018-11-25T01:39:05.020Z,30.10
2018-11-25T01:41:32.710Z,26.10
2018-11-25T01:44:00.451Z,35.93
2018-11-25T01:46:28.085Z,33.07
2018-11-25T01:48:55.684Z,36.13
2018-11-25T01:51:23.368Z,39.70
2018-11-25T01:53:50.998Z,30.27
2018-11-25T01:56:18.630Z,29.80
2018-11-25T01:58:46.368Z,26.40
2018-11-25T02:01:14.102Z,33.93
2018-11-25T02:03:42.470Z,33.90
2018-11-25T02:06:10.100Z,38.10
2018-11-25T02:08:37.791Z,29.03
2018-11-25T02:11:05.986Z,29.67
2018-11-25T02:13:33.624Z,32.07
2018-11-25T02:16:01.292Z,25.33
2018-11-25T02:18:29.098Z,30.47
2018-11-25T02:20:56.827Z,30.50
2018-11-25T02:23:24.507Z,27.67
2018-11-25T02:25:52.346Z,34.07
2018-11-25T02:28:20.013Z,31.77
2018-11-25T02:30:47.701Z,34.47
2018-11-25T02:33:15.279Z,35.83
2018-11-25T02:35:42.894Z,33.63
2018-11-25T02:38:10.547Z,30.60
2018-11-25T02:40:38.134Z,36.50
2018-11-25T02:43:05.875Z,33.67
2018-11-25T02:45:33.488Z,37.43
2018-11-25T02:48:01.290Z,28.47
2018-11-25T02:50:30.549Z,36.10
2018-11-25T02:53:01.912Z,33.10
2018-11-25T02:55:29.549Z,38.73
2018-11-25T02:57:57.237Z,36.23
2018-11-25T03:00:24.866Z,33.97
2018-11-25T03:02:52.632Z,34.60
2018-11-25T03:05:20.448Z,43.70
2018-11-25T03:07:48.137Z,36.43
2018-11-25T03:10:15.802Z,36.50
2018-11-25T03:12:43.682Z,39.10
2018-11-25T03:15:12.436Z,30.87
2018-11-25T03:17:40.106Z,28.50
2018-11-25T03:20:12.735Z,29.60
2018-11-25T03:22:40.445Z,36.63
2018-11-25T03:25:12.893Z,30.23
2018-11-25T03:27:40.545Z,32.60
2018-11-25T03:30:09.850Z,30.70
2018-11-25T03:32:37.555Z,33.23
2018-11-25T03:35:05.534Z,34.43
2018-11-25T03:37:33.346Z,35.30
2018-11-25T03:40:00.927Z,31.87
2018-11-25T03:42:28.565Z,27.20
2018-11-25T03:44:56.284Z,31.17
2018-11-25T03:47:24.011Z,31.53
2018-11-25T03:49:51.661Z,31.33
2018-11-25T03:52:19.482Z,33.07
2018-11-25T03:54:47.132Z,34.97
2018-11-25T03:57:14.758Z,26.27
2018-11-25T03:59:42.412Z,28.13
2018-11-25T04:02:10.223Z,33.57
2018-11-25T04:04:37.832Z,31.77
2018-11-25T04:07:05.797Z,36.70
2018-11-25T04:09:33.435Z,35.63
2018-11-25T04:12:01.383Z,36.53
2018-11-25T04:14:28.921Z,31.90
2018-11-25T04:16:56.552Z,32.00
2018-11-25T04:19:24.449Z,33.20
2018-11-25T04:21:52.062Z,33.10
2018-11-25T04:24:19.681Z,32.97
2018-11-25T04:26:47.309Z,32.93
2018-11-25T04:29:15.111Z,35.73
2018-11-25T04:31:42.874Z,28.40
2018-11-25T04:34:10.523Z,27.63
2018-11-25T04:36:38.246Z,27.57
2018-11-25T04:39:08.295Z,27.60
2018-11-25T04:41:35.997Z,31.97
2018-11-25T04:44:03.820Z,33.73
2018-11-25T04:46:31.545Z,28.17
2018-11-25T04:48:59.221Z,33.73
2018-11-25T04:51:27.090Z,29.90
2018-11-25T04:53:54.751Z,23.23
2018-11-25T04:56:22.431Z,27.63
2018-11-25T04:58:50.093Z,26.70
2018-11-25T05:01:18.043Z,28.23
2018-11-25T05:03:45.805Z,28.90
2018-11-25T05:06:13.602Z,28.83
2018-11-25T05:08:41.205Z,29.67
2018-11-25T05:11:09.026Z,26.77
2018-11-25T05:13:36.735Z,32.53
2018-11-25T05:16:04.673Z,28.13
2018-11-25T05:18:32.321Z,34.17
2018-11-25T05:20:59.970Z,32.37
2018-11-25T05:23:27.758Z,28.90
2018-11-25T05:25:55.480Z,35.13
2018-11-25T05:28:23.097Z,24.00
2018-11-25T05:30:50.790Z,35.07
2018-11-25T05:33:19.077Z,28.53
2018-11-25T05:35:46.734Z,26.57
2018-11-25T05:38:14.443Z,26.80
2018-11-25T05:40:42.081Z,25.83
2018-11-25T05:43:21.442Z,30.00
2018-11-25T05:45:49.185Z,24.43
2018-11-25T05:48:16.895Z,24.90
2018-11-25T05:50:44.599Z,27.07
2018-11-25T05:53:12.382Z,22.90
2018-11-25T05:55:40.081Z,20.53
2018-11-25T05:58:07.696Z,21.80
2018-11-25T06:00:35.401Z,21.23
2018-11-25T06:03:03.110Z,19.53
2018-11-25T06:05:30.731Z,20.67
2018-11-25T06:07:58.444Z,23.40
2018-11-25T06:10:26.176Z,41.70
2018-11-25T06:12:53.798Z,63.10
2018-11-25T06:15:22.618Z,48.53
2018-11-25T06:17:50.322Z,34.63
2018-11-25T06:20:18.047Z,32.60
2018-11-25T06:22:46.326Z,37.13
2018-11-25T06:25:15.820Z,34.37
2018-11-25T06:27:43.556Z,40.87
2018-11-25T06:30:15.437Z,31.93
2018-11-25T06:32:43.519Z,32.63
2018-11-25T06:35:12.712Z,36.17
2018-11-25T06:37:40.619Z,35.33
2018-11-25T06:40:10.623Z,39.80
2018-11-25T06:42:38.671Z,34.93
2018-11-25T06:45:15.880Z,38.13
2018-11-25T06:47:43.827Z,38.90
2018-11-25T06:50:12.487Z,40.27
2018-11-25T06:52:40.147Z,38.50
2018-11-25T06:55:09.488Z,42.17
2018-11-25T06:57:37.873Z,32.90
2018-11-25T07:00:11.026Z,39.13
2018-11-25T07:02:38.830Z,44.40
2018-11-25T07:05:07.010Z,48.80
2018-11-25T07:07:34.969Z,47.80
2018-11-25T07:10:03.171Z,45.30
2018-11-25T07:12:31.298Z,45.07
2018-11-25T07:14:59.871Z,50.00
2018-11-25T07:17:27.462Z,48.67
2018-11-25T07:19:55.182Z,54.23
2018-11-25T07:22:22.953Z,49.07
2018-11-25T07:24:50.899Z,43.50
2018-11-25T07:27:18.626Z,54.30
2018-11-25T07:29:46.360Z,48.90
2018-11-25T07:32:14.042Z,51.00
2018-11-25T07:34:42.049Z,54.43
2018-11-25T07:37:09.798Z,49.37
2018-11-25T07:39:37.548Z,50.27
2018-11-25T07:42:05.340Z,55.70
2018-11-25T07:44:33.284Z,47.47
2018-11-25T07:47:00.911Z,53.33
2018-11-25T07:49:28.702Z,55.13
2018-11-25T07:51:56.348Z,48.60
2018-11-25T07:54:23.993Z,47.67
2018-11-25T07:56:51.711Z,49.17
2018-11-25T07:59:19.367Z,55.17
2018-11-25T08:01:47.003Z,47.23
2018-11-25T08:04:14.716Z,48.60
2018-11-25T08:06:42.408Z,48.53
2018-11-25T08:09:11.280Z,72.63
2018-11-25T08:11:39.194Z,61.60
2018-11-25T08:14:06.914Z,52.50
2018-11-25T08:16:34.778Z,58.77
2018-11-25T08:19:02.570Z,57.27
2018-11-25T08:21:30.243Z,48.20
2018-11-25T08:23:58.013Z,47.30
2018-11-25T08:26:25.686Z,56.57
2018-11-25T08:28:53.367Z,51.70
2018-11-25T08:31:21.227Z,48.10
2018-11-25T08:33:49.135Z,54.30
2018-11-25T08:36:16.775Z,52.93
2018-11-25T08:38:44.516Z,49.97
2018-11-25T08:41:12.367Z,53.50
2018-11-25T08:43:40.249Z,54.17
2018-11-25T08:46:07.980Z,47.33
2018-11-25T08:48:36.535Z,61.23
2018-11-25T08:51:04.338Z,69.27
2018-11-25T08:53:32.022Z,66.73
2018-11-25T08:55:59.797Z,62.23
2018-11-25T08:58:27.430Z,53.30
2018-11-25T09:00:55.091Z,56.37
2018-11-25T09:03:22.997Z,50.70
2018-11-25T09:05:50.616Z,41.70
2018-11-25T09:08:18.325Z,49.60
2018-11-25T09:10:46.039Z,39.70
2018-11-25T09:13:13.784Z,40.93
2018-11-25T09:15:41.975Z,40.40
2018-11-25T09:18:10.031Z,35.80
2018-11-25T09:20:38.001Z,40.07
2018-11-25T09:23:05.831Z,33.00
2018-11-25T09:25:33.401Z,34.90
2018-11-25T09:28:02.340Z,37.70
2018-11-25T09:30:31.206Z,37.13
2018-11-25T09:32:58.996Z,40.10
2018-11-25T09:35:26.666Z,38.23
2018-11-25T09:37:54.670Z,36.37
2018-11-25T09:40:23.520Z,40.07
2018-11-25T09:42:51.207Z,43.23
2018-11-25T09:45:19.731Z,44.07
2018-11-25T09:47:47.726Z,40.77
2018-11-25T09:50:17.559Z,43.23
2018-11-25T09:52:45.433Z,33.10
2018-11-25T09:55:14.158Z,36.47
2018-11-25T09:57:43.023Z,41.93
2018-11-25T10:00:23.743Z,43.27
2018-11-25T10:02:51.433Z,42.97
2018-11-25T10:05:19.653Z,50.13
2018-11-25T10:07:48.357Z,52.30
2018-11-25T10:10:18.487Z,43.90
2018-11-25T10:12:47.555Z,43.97
2018-11-25T10:15:16.387Z,41.70
2018-11-25T10:17:44.063Z,35.53
2018-11-25T10:20:14.690Z,41.50
2018-11-25T10:22:42.646Z,33.50
2018-11-25T10:25:11.438Z,37.67
2018-11-25T10:27:39.100Z,37.60
2018-11-25T10:30:10.627Z,35.03
2018-11-25T10:32:38.316Z,37.93
2018-11-25T10:35:06.680Z,41.77
2018-11-25T10:37:34.446Z,70.20
2018-11-25T10:40:02.161Z,55.17
2018-11-25T10:42:30.333Z,47.07
2018-11-25T10:44:58.238Z,37.93
2018-11-25T10:47:26.073Z,41.37
2018-11-25T10:49:54.098Z,40.53
2018-11-25T10:52:22.039Z,44.67
2018-11-25T10:54:50.095Z,37.53
2018-11-25T10:57:17.919Z,40.27
2018-11-25T10:59:45.600Z,37.97
2018-11-25T11:02:18.901Z,43.63
2018-11-25T11:04:52.749Z,43.30
2018-11-25T11:07:22.363Z,40.97
2018-11-25T11:09:50.869Z,39.03
2018-11-25T11:12:18.740Z,39.90
2018-11-25T11:14:46.377Z,40.07
2018-11-25T11:17:14.018Z,45.00
2018-11-25T11:19:41.826Z,41.40
2018-11-25T11:22:09.660Z,45.03
2018-11-25T11:24:37.371Z,63.00
2018-11-25T11:27:05.112Z,85.03
2018-11-25T11:29:32.958Z,60.87
2018-11-25T11:32:01.119Z,51.77
2018-11-25T11:34:28.984Z,48.97
2018-11-25T11:36:57.340Z,44.03
2018-11-25T11:39:24.991Z,54.53
2018-11-25T11:41:53.002Z,53.23
2018-11-25T11:44:20.784Z,51.10
2018-11-25T11:46:48.651Z,44.37
2018-11-25T11:49:16.611Z,49.30
2018-11-25T11:51:44.538Z,48.50
2018-11-25T11:54:12.354Z,43.70
2018-11-25T11:56:40.449Z,43.50
2018-11-25T11:59:07.814Z,45.27
2018-11-25T12:01:35.518Z,51.63
2018-11-25T12:04:03.385Z,50.80
2018-11-25T12:06:31.482Z,46.40
2018-11-25T12:08:59.534Z,45.60
2018-11-25T12:11:27.892Z,49.27
2018-11-25T12:13:56.499Z,52.33
2018-11-25T12:16:24.288Z,51.07
2018-11-25T12:18:52.358Z,53.50
2018-11-25T12:21:20.371Z,49.27
2018-11-25T12:23:48.210Z,45.83
2018-11-25T12:26:16.010Z,42.20
2018-11-25T12:28:43.773Z,45.90
2018-11-25T12:31:11.484Z,45.93
2018-11-25T12:33:39.225Z,41.40
2018-11-25T12:36:06.905Z,42.03
2018-11-25T12:38:34.598Z,39.60
2018-11-25T12:41:02.409Z,41.87
2018-11-25T12:43:30.340Z,41.20
2018-11-25T12:45:58.263Z,50.00
2018-11-25T12:48:26.231Z,46.20
2018-11-25T12:50:54.298Z,40.97
2018-11-25T12:53:22.289Z,41.37
2018-11-25T12:55:50.214Z,42.87
2018-11-25T12:58:18.268Z,51.23
2018-11-25T13:00:47.584Z,75.90
2018-11-25T13:03:15.289Z,57.00
2018-11-25T13:05:46.162Z,46.97
2018-11-25T13:08:12.987Z,44.13
2018-11-25T13:10:41.124Z,49.50
2018-11-25T13:13:09.701Z,55.87
2018-11-25T13:15:37.500Z,47.77
2018-11-25T13:18:06.552Z,51.03
2018-11-25T13:20:34.424Z,46.93
2018-11-25T13:23:02.304Z,43.67
2018-11-25T13:25:30.055Z,44.63
2018-11-25T13:27:57.769Z,50.67
2018-11-25T13:30:28.107Z,48.63
2018-11-25T13:32:56.784Z,48.60
2018-11-25T13:35:25.747Z,43.80
2018-11-25T13:37:53.795Z,42.63
2018-11-25T13:40:21.571Z,42.30
2018-11-25T13:42:49.440Z,41.67
2018-11-25T13:45:17.341Z,40.07
2018-11-25T13:47:45.240Z,46.60
2018-11-25T13:50:13.272Z,39.73
2018-11-25T13:52:40.816Z,43.63
2018-11-25T13:55:15.079Z,42.73
2018-11-25T13:57:43.009Z,46.03
2018-11-25T14:00:15.795Z,42.37
2018-11-25T14:02:43.492Z,42.33
2018-11-25T14:05:11.581Z,38.37
2018-11-25T14:07:39.298Z,39.97
2018-11-25T14:10:11.103Z,36.10
2018-11-25T14:12:38.953Z,43.83
2018-11-25T14:15:09.315Z,42.73
2018-11-25T14:17:37.009Z,41.37
2018-11-25T14:20:06.661Z,41.40
2018-11-25T14:22:34.788Z,41.20
2018-11-25T14:25:02.601Z,41.60
2018-11-25T14:27:30.413Z,47.13
2018-11-25T14:29:58.426Z,38.57
2018-11-25T14:32:26.160Z,37.87
2018-11-25T14:34:56.766Z,39.30
2018-11-25T14:37:24.696Z,32.47
2018-11-25T14:39:52.675Z,36.80
2018-11-25T14:42:20.509Z,39.40
2018-11-25T14:44:48.377Z,38.93
2018-11-25T14:47:16.033Z,38.63
2018-11-25T14:49:43.724Z,38.37
2018-11-25T14:52:11.499Z,38.10
2018-11-25T14:54:39.346Z,34.80
2018-11-25T14:57:06.872Z,42.87
2018-11-25T14:59:34.744Z,38.70
2018-11-25T15:02:02.480Z,39.63
2018-11-25T15:04:36.074Z,37.30
2018-11-25T15:06:57.878Z,38.97
2018-11-25T15:09:25.703Z,68.80
2018-11-25T15:11:53.589Z,58.17
2018-11-25T15:14:21.234Z,43.57
2018-11-25T15:16:49.030Z,34.17
2018-11-25T15:19:16.948Z,32.13
2018-11-25T15:21:44.712Z,34.40
2018-11-25T15:24:13.255Z,28.53
2018-11-25T15:26:41.163Z,30.53
2018-11-25T15:29:09.182Z,33.67
2018-11-25T15:31:36.951Z,30.03
2018-11-25T15:34:04.746Z,35.47
2018-11-25T15:36:32.524Z,49.67
2018-11-25T15:39:00.269Z,36.10
2018-11-25T15:41:28.047Z,31.03
2018-11-25T15:43:55.848Z,27.90
2018-11-25T15:46:23.661Z,32.43
2018-11-25T15:48:51.793Z,31.60
2018-11-25T15:51:20.194Z,27.33
2018-11-25T15:53:48.313Z,24.70
2018-11-25T15:56:16.372Z,27.10
2018-11-25T15:58:45.158Z,32.10
2018-11-25T16:01:13.099Z,34.27
2018-11-25T16:03:41.190Z,30.57
2018-11-25T16:06:15.520Z,33.53
2018-11-25T16:08:43.227Z,30.43
2018-11-25T16:11:10.858Z,31.03
2018-11-25T16:13:38.548Z,28.10
2018-11-25T16:16:06.329Z,28.40
2018-11-25T16:18:33.947Z,27.90
2018-11-25T16:21:02.034Z,37.80
2018-11-25T16:23:29.789Z,38.47
2018-11-25T16:26:00.249Z,34.43
2018-11-25T16:28:35.548Z,30.97
2018-11-25T16:31:03.609Z,29.40
2018-11-25T16:33:31.173Z,36.47
2018-11-25T16:35:58.910Z,31.87
2018-11-25T16:38:26.618Z,32.87
2018-11-25T16:40:54.312Z,31.50
2018-11-25T16:43:22.097Z,33.07
2018-11-25T16:45:49.701Z,31.60
2018-11-25T16:48:17.612Z,30.60
2018-11-25T16:50:45.997Z,31.77
2018-11-25T16:53:13.874Z,31.03
2018-11-25T16:55:41.703Z,38.27
2018-11-25T16:58:09.699Z,42.20
2018-11-25T17:00:37.565Z,35.93
2018-11-25T17:03:06.046Z,37.60
2018-11-25T17:05:35.745Z,33.10
2018-11-25T17:08:09.937Z,37.00
2018-11-25T17:10:37.596Z,36.57
2018-11-25T17:13:06.097Z,37.97
2018-11-25T17:15:33.910Z,36.23
2018-11-25T17:18:01.585Z,37.40
2018-11-25T17:20:29.191Z,33.73
2018-11-25T17:22:56.926Z,34.67
2018-11-25T17:25:24.799Z,38.50
2018-11-25T17:27:52.712Z,41.43
2018-11-25T17:30:20.750Z,38.23
2018-11-25T17:32:48.846Z,40.30
2018-11-25T17:35:18.004Z,41.57
2018-11-25T17:37:45.712Z,33.43
2018-11-25T17:40:13.394Z,43.37
2018-11-25T17:42:41.103Z,37.43
2018-11-25T17:45:10.005Z,35.37
2018-11-25T17:47:37.749Z,35.47
2018-11-25T17:50:13.845Z,38.00
2018-11-25T17:52:41.524Z,36.57
2018-11-25T17:55:10.476Z,43.83
2018-11-25T17:57:38.322Z,43.37
2018-11-25T18:00:18.152Z,35.93
2018-11-25T18:02:45.926Z,35.50
2018-11-25T18:05:13.822Z,41.43
2018-11-25T18:07:41.694Z,41.30
2018-11-25T18:10:11.416Z,41.50
2018-11-25T18:12:39.119Z,41.80
2018-11-25T18:15:12.959Z,43.33
2018-11-25T18:17:43.110Z,35.90
2018-11-25T18:20:11.143Z,35.77
2018-11-25T18:22:42.919Z,30.20
2018-11-25T18:25:10.592Z,34.83
2018-11-25T18:27:38.235Z,104.47
2018-11-25T18:30:09.285Z,58.50
2018-11-25T18:32:37.181Z,42.77
2018-11-25T18:35:05.839Z,42.90
2018-11-25T18:37:33.650Z,35.03
2018-11-25T18:40:01.655Z,33.97
2018-11-25T18:42:29.428Z,32.70
2018-11-25T18:44:57.125Z,30.50
2018-11-25T18:47:24.932Z,39.33
2018-11-25T18:49:52.743Z,36.37
2018-11-25T18:52:20.440Z,36.10
2018-11-25T18:54:47.735Z,34.43
2018-11-25T18:57:15.676Z,37.40
2018-11-25T18:59:43.433Z,38.00
2018-11-25T19:02:38.091Z,34.90
2018-11-25T19:05:06.399Z,31.87
2018-11-25T19:07:34.210Z,36.93
2018-11-25T19:10:02.036Z,35.20
2018-11-25T19:12:29.741Z,34.30
2018-11-25T19:14:57.505Z,35.00
2018-11-25T19:17:25.212Z,41.83
2018-11-25T19:19:52.820Z,28.13
2018-11-25T19:22:20.496Z,37.20
2018-11-25T19:24:48.170Z,31.70
2018-11-25T19:27:15.992Z,34.47
2018-11-25T19:29:43.728Z,31.00
2018-11-25T19:32:11.375Z,32.93
2018-11-25T19:34:39.173Z,33.80
2018-11-25T19:37:06.856Z,29.40
2018-11-25T19:39:34.586Z,33.67
2018-11-25T19:42:02.119Z,36.57
2018-11-25T19:44:29.974Z,31.07
2018-11-25T19:46:57.739Z,32.40
2018-11-25T19:49:25.503Z,30.97
2018-11-25T19:51:53.195Z,36.53
2018-11-25T19:54:21.052Z,33.60
2018-11-25T19:56:49.128Z,32.10
2018-11-25T19:59:17.030Z,35.33
2018-11-25T20:01:45.063Z,27.57
2018-11-25T20:04:12.767Z,30.10
2018-11-25T20:06:40.640Z,33.30
2018-11-25T20:09:09.308Z,35.47
2018-11-25T20:11:37.182Z,32.00
2018-11-25T20:14:05.435Z,30.80
2018-11-25T20:16:38.508Z,32.50
2018-11-25T20:19:06.151Z,31.17
2018-11-25T20:21:39.370Z,30.73
2018-11-25T20:24:07.225Z,30.53
2018-11-25T20:26:35.124Z,37.93
2018-11-25T20:29:03.197Z,35.80
2018-11-25T20:31:31.376Z,29.80
2018-11-25T20:33:59.069Z,30.60
2018-11-25T20:36:26.942Z,33.17
2018-11-25T20:39:00.274Z,34.87
2018-11-25T20:41:28.177Z,30.80
2018-11-25T20:43:55.946Z,27.40
2018-11-25T20:46:29.371Z,26.90
2018-11-25T20:48:57.377Z,25.27
2018-11-25T20:51:30.833Z,35.20
2018-11-25T20:53:59.532Z,30.37
2018-11-25T20:56:27.360Z,27.90
2018-11-25T20:58:54.957Z,33.10
2018-11-25T21:01:22.827Z,30.97
2018-11-25T21:03:50.861Z,31.47
2018-11-25T21:06:18.911Z,30.20
2018-11-25T21:08:46.743Z,27.57
2018-11-25T21:11:14.516Z,35.33
2018-11-25T21:13:42.202Z,33.70
2018-11-25T21:16:10.080Z,25.63
2018-11-25T21:18:38.115Z,31.20
2018-11-25T21:21:05.985Z,32.37
2018-11-25T21:23:33.687Z,26.27
2018-11-25T21:26:01.594Z,31.47
2018-11-25T21:28:29.427Z,31.67
2018-11-25T21:30:57.275Z,24.67
2018-11-25T21:33:25.231Z,27.57
2018-11-25T21:35:52.953Z,29.70
2018-11-25T21:38:20.694Z,36.53
2018-11-25T21:40:48.478Z,32.63
2018-11-25T21:43:16.228Z,36.23
2018-11-25T21:45:43.887Z,39.50
2018-11-25T21:48:11.601Z,33.23
2018-11-25T21:50:39.414Z,36.57
2018-11-25T21:53:07.089Z,31.53
2018-11-25T21:55:34.636Z,30.77
2018-11-25T21:58:02.296Z,38.33
2018-11-25T22:00:30.092Z,41.47
2018-11-25T22:02:57.785Z,35.50
2018-11-25T22:05:25.451Z,36.43
2018-11-25T22:07:53.283Z,34.57
2018-11-25T22:10:21.138Z,42.03
2018-11-25T22:12:49.351Z,38.20
2018-11-25T22:15:18.431Z,46.37
2018-11-25T22:17:46.175Z,37.70
2018-11-25T22:20:14.570Z,41.63
2018-11-25T22:22:42.605Z,35.40
2018-11-25T22:25:11.343Z,35.80
2018-11-25T22:27:39.040Z,37.17
2018-11-25T22:30:09.423Z,39.60
2018-11-25T22:32:37.210Z,37.97
2018-11-25T22:35:07.345Z,39.50
2018-11-25T22:37:35.024Z,40.60
2018-11-25T22:40:02.745Z,47.83
2018-11-25T22:42:30.540Z,41.20
2018-11-25T22:44:58.408Z,46.97
2018-11-25T22:47:26.126Z,45.43
2018-11-25T22:49:53.867Z,41.07
2018-11-25T22:52:21.566Z,53.77
2018-11-25T22:54:49.502Z,46.57
2018-11-25T22:57:17.406Z,48.10
2018-11-25T22:59:45.243Z,42.90
2018-11-25T23:02:13.134Z,46.70
2018-11-25T23:04:52.335Z,44.30
2018-11-25T23:07:20.045Z,41.50
2018-11-25T23:09:47.802Z,56.00
2018-11-25T23:12:15.721Z,46.47
2018-11-25T23:14:43.424Z,50.00
2018-11-25T23:17:11.080Z,53.70
2018-11-25T23:19:38.826Z,51.07
2018-11-25T23:22:06.518Z,49.60
2018-11-25T23:24:34.228Z,45.70
2018-11-25T23:27:01.952Z,41.80
2018-11-25T23:29:29.616Z,52.53
2018-11-25T23:31:57.314Z,44.80
2018-11-25T23:34:24.985Z,46.63
2018-11-25T23:36:52.985Z,45.13
2018-11-25T23:39:20.671Z,51.27
2018-11-25T23:41:48.318Z,43.30
2018-11-25T23:44:15.987Z,56.60
2018-11-25T23:46:43.902Z,45.37
2018-11-25T23:49:11.588Z,45.17
2018-11-25T23:51:39.261Z,52.80
2018-11-25T23:54:07.116Z,46.10
2018-11-25T23:56:34.787Z,52.23
2018-11-25T23:59:02.487Z,45.97
